createdAt,value
2023-02-11T00:12:31.832Z,101353.20
2023-02-11T00:27:37.030Z,101305.19
2023-02-11T00:42:40.980Z,101280.73
2023-02-11T00:57:44.174Z,101233.42
2023-02-11T01:12:47.634Z,101198.02
2023-02-11T01:27:51.077Z,101175.96
2023-02-11T01:42:54.275Z,101113.45
2023-02-11T01:58:03.005Z,101070.78
2023-02-11T02:13:06.611Z,101056.13
2023-02-11T02:28:30.624Z,101052.29
2023-02-11T02:43:35.913Z,101020.25
2023-02-11T02:59:19.094Z,100994.61
2023-02-11T03:14:27.022Z,100984.95
2023-02-11T03:29:44.472Z,100957.89
2023-02-11T03:44:58.190Z,100919.73
2023-02-11T04:00:01.715Z,100894.02
2023-02-11T04:15:15.127Z,100881.20
2023-02-11T04:30:18.783Z,100851.70
2023-02-11T04:45:21.950Z,100837.50
2023-02-11T05:00:25.323Z,100834.40
2023-02-11T05:15:28.661Z,100811.17
2023-02-11T05:30:32.994Z,100773.32
2023-02-11T05:45:36.568Z,100753.63
2023-02-11T06:00:39.709Z,100718.36
2023-02-11T06:15:42.929Z,100705.70
2023-02-11T06:30:46.145Z,100700.08
2023-02-11T06:45:54.642Z,100698.61
2023-02-11T07:00:57.802Z,100681.39
2023-02-11T07:16:05.608Z,100652.06
2023-02-11T07:31:24.514Z,100638.99
2023-02-11T07:46:28.222Z,100621.71
2023-02-11T08:01:31.823Z,100646.88
2023-02-11T08:16:37.372Z,100627.31
2023-02-11T08:31:43.663Z,100609.66
2023-02-11T08:46:47.238Z,100610.20
2023-02-11T09:01:50.825Z,100605.00
2023-02-11T09:16:54.437Z,100588.51
2023-02-11T09:31:57.802Z,100549.73
2023-02-11T09:47:05.010Z,100490.89
2023-02-11T10:02:38.184Z,100529.50
2023-02-11T10:17:53.267Z,100530.67
2023-02-11T10:33:17.988Z,100530.63
2023-02-11T10:48:44.110Z,100506.64
2023-02-11T11:03:50.908Z,100497.20
2023-02-11T11:19:16.434Z,100488.48
2023-02-11T11:34:30.569Z,100477.70
2023-02-11T11:49:39.729Z,100498.98
2023-02-11T12:04:56.665Z,100510.33
2023-02-11T12:20:18.487Z,100521.15
2023-02-11T12:35:39.994Z,100524.15
2023-02-11T12:51:19.860Z,100529.25
2023-02-11T13:06:31.486Z,100544.21
2023-02-11T13:21:56.610Z,100547.10
2023-02-11T13:37:00.101Z,100552.08
2023-02-11T13:52:07.255Z,100575.95
2023-02-11T14:07:46.841Z,100598.45
2023-02-11T14:22:52.077Z,100618.48
2023-02-11T14:38:02.036Z,100627.05
2023-02-11T14:53:06.570Z,100650.59
2023-02-11T15:08:15.573Z,100680.23
2023-02-11T15:23:25.928Z,100706.30
2023-02-11T15:38:32.698Z,100732.61
2023-02-11T15:53:43.449Z,100751.23
2023-02-11T16:09:04.231Z,100781.94
2023-02-11T16:24:08.662Z,100816.24
2023-02-11T16:39:12.205Z,100848.81
2023-02-11T16:54:17.608Z,100881.60
2023-02-11T17:09:23.677Z,100904.59
2023-02-11T17:24:26.958Z,100944.30
2023-02-11T17:39:30.320Z,100987.18
2023-02-11T17:54:33.621Z,101008.70
2023-02-11T18:09:38.683Z,101038.98
2023-02-11T18:24:42.525Z,101073.61
2023-02-11T18:39:46.034Z,101100.44
2023-02-11T18:54:51.674Z,101152.52
2023-02-11T19:09:55.996Z,101202.70
2023-02-11T19:24:59.340Z,101238.23
2023-02-11T19:40:03.611Z,101286.52
2023-02-11T19:55:08.424Z,101323.38
2023-02-11T20:10:12.272Z,101359.39
2023-02-11T20:25:22.695Z,101414.67
2023-02-11T20:40:26.356Z,101451.73
2023-02-11T20:55:30.096Z,101479.19
2023-02-11T21:10:33.764Z,101519.08
2023-02-11T21:25:36.946Z,101549.84
2023-02-11T21:40:40.782Z,101574.77
2023-02-11T21:55:44.478Z,101590.95
2023-02-11T22:10:47.861Z,101608.04
2023-02-11T22:25:53.628Z,101633.44
2023-02-11T22:40:58.322Z,101659.48
2023-02-11T22:56:07.221Z,101700.13
2023-02-11T23:11:13.534Z,101712.69
2023-02-11T23:26:18.832Z,101712.58
2023-02-11T23:41:23.072Z,101717.38
2023-02-11T23:56:28.418Z,101752.46
